Pagina principală
METAR-TAF:

METAR-TAF

Aeroporturi :

Villamontes, Bolivia

Latitudine: 21-15S, longitudine: 063-27W, elevație: 398 m

Observații meteo curente

Raportul a fost făcut în urmă cu 1 oră și 5 de minute, la 20:00 UTC
Vânt 8 kt de la Sud/Sud-est
Temperatură 28°C
Umiditate 42%
Presiune 1013 hPa
Vizibilitate de 10 km sau mai mult

METAR: SLVM 162000Z 16008KT 9999 NSC 28/14 Q1013

Ora: 17:05 (21:05 UTC)


TAF: lipsă

Observații și prognoze meteo pentru peste 4.000 de aeroporturi (rapoarte METAR și TAF).

Stațiile disponibile sunt reprezentate pe hartă prin puncte galbene și roșii.

Țineți indicatorul mouse-ului pe punctul dorit pentru a vedea denumirea stației.

Apoi, faceți clic pentru a vedea observațiile și prognozele meteorologice.

Pentru a schimba harta: Pentru mărire, faceți clic pe butoanele verzi cu cruce neagră; pentru micșorare, pe butonul verde cu o liniuță; pentru hărți învecinate, pe săgețile verzi.


METAR-TAF: